Time;durP1;ratioP1;P1;durP2;ratioP2;P2;SDS_P1;SDS_P2;PMS_P1;PMS_P2;Temp;Humidity;BMP_temperature;BMP_pressure;BME280_temperature;BME280_humidity;BME280_pressure;Samples;Min_cycle;Max_cycle;Signal;HPM_P1;HPM_P2
2022/04/23 00:01:20;;;;;;;6.18;5.40;;;;;;;;;;7330080;19;163060;-17
2022/04/23 00:03:51;;;;;;;12.23;5.45;;;;;;;;;;7330244;19;154022;-16
2022/04/23 00:06:23;;;;;;;10.10;5.68;;;;;;;;;;7334861;19;153719;-16
2022/04/23 00:08:54;;;;;;;9.48;5.68;;;;;;;;;;7331104;19;162063;-17
2022/04/23 00:11:25;;;;;;;8.52;5.43;;;;;;;;;;7330796;19;162631;-17
2022/04/23 00:13:59;;;;;;;9.88;5.05;;;;;;;;;;7331534;19;154053;-16
2022/04/23 00:16:31;;;;;;;7.60;5.18;;;;;;;;;;7331073;19;153851;-17
2022/04/23 00:19:02;;;;;;;7.50;5.43;;;;;;;;;;7330946;19;161957;-17
2022/04/23 00:21:33;;;;;;;10.43;5.35;;;;;;;;;;7329530;19;162419;-15
2022/04/23 00:24:05;;;;;;;8.27;5.22;;;;;;;;;;7329403;19;154335;-16
2022/04/23 00:26:36;;;;;;;7.85;5.10;;;;;;;;;;7331355;19;153887;-16
2022/04/23 00:29:10;;;;;;;7.35;4.60;;;;;;;;;;7330878;19;161971;-15
2022/04/23 00:31:41;;;;;;;6.75;4.78;;;;;;;;;;7330613;19;162953;-15
2022/04/23 00:34:14;;;;;;;7.22;4.50;;;;;;;;;;7330675;19;154152;-16
2022/04/23 00:36:45;;;;;;;6.23;4.43;;;;;;;;;;7330896;19;153506;-15
2022/04/23 00:39:16;;;;;;;5.95;4.38;;;;;;;;;;7329380;19;161934;-17
2022/04/23 00:41:48;;;;;;;8.05;4.38;;;;;;;;;;7329887;19;162775;-14
2022/04/23 00:44:22;;;;;;;5.03;3.95;;;;;;;;;;7329061;19;154115;-14
2022/04/23 00:46:53;;;;;;;5.95;4.53;;;;;;;;;;7330163;19;153610;-14
2022/04/23 00:49:25;;;;;;;6.38;4.63;;;;;;;;;;7328265;19;162089;-15
2022/04/23 00:51:56;;;;;;;5.57;4.35;;;;;;;;;;7333048;19;162454;-16
2022/04/23 00:54:27;;;;;;;6.53;3.20;;;;;;;;;;7330191;19;154041;-15
2022/04/23 00:56:59;;;;;;;6.13;3.00;;;;;;;;;;7331482;19;153676;-16
2022/04/23 00:59:33;;;;;;;6.45;3.15;;;;;;;;;;7333148;19;161926;-15
2022/04/23 01:02:05;;;;;;;3.88;2.45;;;;;;;;;;7331021;19;162325;-16
2022/04/23 01:04:36;;;;;;;3.80;2.50;;;;;;;;;;7331689;19;154064;-14
2022/04/23 01:07:08;;;;;;;4.72;2.95;;;;;;;;;;7333746;19;153568;-15
2022/04/23 01:09:39;;;;;;;3.70;3.08;;;;;;;;;;7333439;19;161730;-15
2022/04/23 01:12:12;;;;;;;5.32;2.95;;;;;;;;;;7330065;19;162510;-17
2022/04/23 01:15:04;;;;;;;4.72;3.20;;;;;;;;;;7333590;19;154042;-16
2022/04/23 01:17:36;;;;;;;4.43;2.88;;;;;;;;;;7331771;19;153606;-15
2022/04/23 01:20:11;;;;;;;5.10;2.78;;;;;;;;;;7332565;19;161940;-15
2022/04/23 01:22:44;;;;;;;5.65;2.70;;;;;;;;;;7331536;19;162375;-16
2022/04/23 01:25:16;;;;;;;4.47;2.78;;;;;;;;;;7331339;19;154437;-16
2022/04/23 01:27:48;;;;;;;3.20;2.42;;;;;;;;;;7333548;19;153583;-15
2022/04/23 01:30:19;;;;;;;3.03;2.67;;;;;;;;;;7332462;19;161647;-14
2022/04/23 01:32:50;;;;;;;4.38;3.20;;;;;;;;;;7331905;19;162507;-16
2022/04/23 01:35:25;;;;;;;4.53;3.42;;;;;;;;;;7331899;19;154104;-15
2022/04/23 01:37:56;;;;;;;3.10;2.70;;;;;;;;;;7331332;19;153798;-15
2022/04/23 01:40:27;;;;;;;3.65;2.38;;;;;;;;;;7332066;19;162023;-17
2022/04/23 01:42:58;;;;;;;3.47;2.30;;;;;;;;;;7330967;19;162423;-16
2022/04/23 01:45:30;;;;;;;5.35;2.20;;;;;;;;;;7330830;19;154109;-16
2022/04/23 01:48:01;;;;;;;6.03;2.60;;;;;;;;;;7330833;19;153640;-16
2022/04/23 01:50:35;;;;;;;3.75;2.50;;;;;;;;;;7331815;19;161853;-14
2022/04/23 01:53:06;;;;;;;2.55;2.35;;;;;;;;;;7327266;19;162372;-15
2022/04/23 01:55:37;;;;;;;3.35;2.45;;;;;;;;;;7328567;19;154013;-16
2022/04/23 01:58:09;;;;;;;3.72;2.72;;;;;;;;;;7328325;19;153515;-16
2022/04/23 02:00:40;;;;;;;4.63;2.50;;;;;;;;;;7328041;19;161786;-15
2022/04/23 02:03:11;;;;;;;2.88;2.20;;;;;;;;;;7328257;19;162349;-15
2022/04/23 02:05:45;;;;;;;3.47;2.33;;;;;;;;;;7326779;19;154193;-15
2022/04/23 02:08:20;;;;;;;3.60;2.30;;;;;;;;;;7327977;19;153599;-15
2022/04/23 02:10:52;;;;;;;3.50;2.65;;;;;;;;;;7331917;19;161850;-14
2022/04/23 02:13:23;;;;;;;2.50;2.22;;;;;;;;;;7327815;19;163099;-16
2022/04/23 02:15:55;;;;;;;3.83;2.15;;;;;;;;;;7328495;19;154225;-16
2022/04/23 02:18:28;;;;;;;4.23;2.30;;;;;;;;;;7328954;19;153566;-16
2022/04/23 02:21:02;;;;;;;;;;;;;;;;;;7328718;19;161827;-16
2022/04/23 02:23:33;;;;;;;;;;;;;;;;;;7330373;19;162801;-15
2022/04/23 02:26:05;;;;;;;2.50;1.80;;;;;;;;;;7333927;19;154675;-15
2022/04/23 02:28:38;;;;;;;2.95;2.33;;;;;;;;;;7334870;19;153579;-16
2022/04/23 02:31:10;;;;;;;3.35;2.30;;;;;;;;;;7334435;19;161991;-15
2022/04/23 02:33:41;;;;;;;3.40;2.40;;;;;;;;;;7333290;19;162208;-16
2022/04/23 02:36:15;;;;;;;3.33;2.03;;;;;;;;;;7334314;19;154039;-16
2022/04/23 02:38:51;;;;;;;2.95;2.30;;;;;;;;;;7334211;19;153731;-16
2022/04/23 02:41:22;;;;;;;2.45;2.20;;;;;;;;;;7334008;19;161785;-17
2022/04/23 02:43:54;;;;;;;2.28;2.00;;;;;;;;;;7333847;19;162552;-16
2022/04/23 02:46:26;;;;;;;2.38;2.00;;;;;;;;;;7332672;19;154065;-15
2022/04/23 02:48:57;;;;;;;2.33;2.07;;;;;;;;;;7332207;19;153559;-15
2022/04/23 02:51:31;;;;;;;3.03;2.28;;;;;;;;;;7333595;19;161858;-16
2022/04/23 02:54:02;;;;;;;2.85;1.92;;;;;;;;;;7333402;19;162583;-15
2022/04/23 02:56:34;;;;;;;2.35;2.10;;;;;;;;;;7334052;19;154022;-17
2022/04/23 02:59:06;;;;;;;2.38;1.90;;;;;;;;;;7333748;19;153634;-15
2022/04/23 03:01:39;;;;;;;1.73;1.63;;;;;;;;;;7333378;19;162072;-15
2022/04/23 03:04:10;;;;;;;2.10;1.90;;;;;;;;;;7333225;19;162421;-16
2022/04/23 03:06:45;;;;;;;1.90;1.75;;;;;;;;;;7331927;19;154299;-16
2022/04/23 03:09:16;;;;;;;1.92;1.70;;;;;;;;;;7333399;19;153598;-16
2022/04/23 03:11:48;;;;;;;1.77;1.67;;;;;;;;;;7333137;19;161723;-17
2022/04/23 03:14:19;;;;;;;2.70;1.85;;;;;;;;;;7333185;19;162469;-15
2022/04/23 03:16:50;;;;;;;2.42;1.73;;;;;;;;;;7332288;19;154421;-15
2022/04/23 03:19:21;;;;;;;2.10;1.90;;;;;;;;;;7333118;19;153510;-14
2022/04/23 03:21:57;;;;;;;1.60;1.50;;;;;;;;;;7332686;19;162017;-15
2022/04/23 03:24:28;;;;;;;3.00;2.42;;;;;;;;;;7332729;19;162575;-16
2022/04/23 03:27:01;;;;;;;3.58;2.03;;;;;;;;;;7331167;19;154101;-16
2022/04/23 03:29:32;;;;;;;2.13;1.73;;;;;;;;;;7335722;19;153557;-15
2022/04/23 03:32:03;;;;;;;2.08;1.85;;;;;;;;;;7331298;19;161824;-15
2022/04/23 03:34:35;;;;;;;2.03;1.85;;;;;;;;;;7330196;19;162582;-16
2022/04/23 03:37:09;;;;;;;2.75;1.90;;;;;;;;;;7332991;19;154191;-16
2022/04/23 03:39:40;;;;;;;2.42;2.22;;;;;;;;;;7331416;19;153550;-13
2022/04/23 03:42:11;;;;;;;2.42;1.98;;;;;;;;;;7332275;19;161952;-15
2022/04/23 03:44:42;;;;;;;3.13;1.65;;;;;;;;;;7331902;19;162546;-16
2022/04/23 03:47:15;;;;;;;1.88;1.73;;;;;;;;;;7330388;19;154013;-14
2022/04/23 03:49:46;;;;;;;2.58;1.83;;;;;;;;;;7332466;19;153614;-17
2022/04/23 03:52:20;;;;;;;2.92;1.90;;;;;;;;;;7332071;19;161917;-16
2022/04/23 03:54:52;;;;;;;1.65;1.50;;;;;;;;;;7332104;19;162351;-15
2022/04/23 03:57:23;;;;;;;3.08;1.80;;;;;;;;;;7332331;19;154232;-15
2022/04/23 03:59:54;;;;;;;2.60;1.70;;;;;;;;;;7332188;19;153522;-15
2022/04/23 04:02:26;;;;;;;2.53;1.73;;;;;;;;;;7330867;19;161780;-14
2022/04/23 04:04:57;;;;;;;2.47;2.10;;;;;;;;;;7331685;19;162378;-15
2022/04/23 04:07:31;;;;;;;1.65;1.55;;;;;;;;;;7331792;19;154340;-15
2022/04/23 04:10:03;;;;;;;1.85;1.75;;;;;;;;;;7331949;19;153554;-16
2022/04/23 04:12:34;;;;;;;2.00;1.70;;;;;;;;;;7330107;19;161762;-16
2022/04/23 04:15:06;;;;;;;1.70;1.52;;;;;;;;;;7330208;19;162468;-15
2022/04/23 04:17:38;;;;;;;1.67;1.50;;;;;;;;;;7331966;19;154060;-15
2022/04/23 04:20:12;;;;;;;2.15;1.60;;;;;;;;;;7331691;19;153764;-14
2022/04/23 04:22:47;;;;;;;2.28;1.60;;;;;;;;;;7331210;19;161928;-15
2022/04/23 04:25:18;;;;;;;1.45;1.35;;;;;;;;;;7331097;19;162397;-16
2022/04/23 04:27:50;;;;;;;2.47;1.70;;;;;;;;;;7329305;19;153814;-15
2022/04/23 04:30:21;;;;;;;1.92;1.40;;;;;;;;;;7331294;19;153767;-15
2022/04/23 04:32:54;;;;;;;2.35;1.25;;;;;;;;;;7329779;19;161821;-15
2022/04/23 04:35:25;;;;;;;1.85;1.35;;;;;;;;;;7330842;19;162339;-14
2022/04/23 04:37:59;;;;;;;2.28;1.63;;;;;;;;;;7331148;19;154094;-16
2022/04/23 04:40:30;;;;;;;2.33;1.50;;;;;;;;;;7331125;19;153589;-16
2022/04/23 04:43:01;;;;;;;1.42;1.33;;;;;;;;;;7329431;19;161782;-16
2022/04/23 04:45:33;;;;;;;1.27;1.17;;;;;;;;;;7329937;19;162529;-14
2022/04/23 04:48:04;;;;;;;2.08;1.90;;;;;;;;;;7328512;19;154076;-15
2022/04/23 04:50:35;;;;;;;1.63;1.48;;;;;;;;;;7330620;19;153545;-15
2022/04/23 04:53:09;;;;;;;1.50;1.40;;;;;;;;;;7330327;19;161735;-15
2022/04/23 04:55:41;;;;;;;2.33;1.67;;;;;;;;;;7330078;19;163042;-14
2022/04/23 04:58:12;;;;;;;1.98;1.48;;;;;;;;;;7330602;19;154261;-15
2022/04/23 05:00:44;;;;;;;1.92;1.80;;;;;;;;;;7330482;19;153480;-15
2022/04/23 05:03:15;;;;;;;1.77;1.55;;;;;;;;;;7330155;19;161867;-15
2022/04/23 05:05:46;;;;;;;1.70;1.48;;;;;;;;;;7329936;19;162511;-14
2022/04/23 05:08:20;;;;;;;1.67;1.58;;;;;;;;;;7326944;19;154108;-14
2022/04/23 05:10:52;;;;;;;1.67;1.42;;;;;;;;;;7328891;19;153526;-14
2022/04/23 05:13:23;;;;;;;1.50;1.40;;;;;;;;;;7329864;19;161806;-14
2022/04/23 05:15:54;;;;;;;1.40;1.30;;;;;;;;;;7329460;19;162449;-14
2022/04/23 05:18:26;;;;;;;1.42;1.30;;;;;;;;;;7329688;19;154234;-16
2022/04/23 05:20:57;;;;;;;1.50;1.40;;;;;;;;;;7332097;19;153583;-16
2022/04/23 05:23:31;;;;;;;1.30;1.20;;;;;;;;;;7329514;19;161976;-16
2022/04/23 05:26:03;;;;;;;2.05;1.40;;;;;;;;;;7327977;19;162620;-16
2022/04/23 05:28:35;;;;;;;1.10;1.00;;;;;;;;;;7327462;19;153991;-14
2022/04/23 05:31:06;;;;;;;1.52;1.20;;;;;;;;;;7329277;19;153538;-15
2022/04/23 05:33:38;;;;;;;1.83;1.45;;;;;;;;;;7328976;19;161926;-17
2022/04/23 05:36:09;;;;;;;1.98;1.48;;;;;;;;;;7328824;19;162458;-15
2022/04/23 05:38:43;;;;;;;1.67;1.23;;;;;;;;;;7329553;19;154045;-15
2022/04/23 05:41:14;;;;;;;0.95;0.95;;;;;;;;;;7328093;19;153576;-14
2022/04/23 05:43:45;;;;;;;1.08;0.77;;;;;;;;;;7329233;19;161740;-15
2022/04/23 05:46:17;;;;;;;1.48;0.88;;;;;;;;;;7328942;19;163118;-15
2022/04/23 05:48:48;;;;;;;2.67;0.95;;;;;;;;;;7326840;19;154052;-15
2022/04/23 05:51:19;;;;;;;1.20;0.77;;;;;;;;;;7329106;19;153536;-16
2022/04/23 05:53:53;;;;;;;2.40;0.75;;;;;;;;;;7327313;19;161822;-16
2022/04/23 05:56:24;;;;;;;0.93;0.80;;;;;;;;;;7327473;19;162455;-15
2022/04/23 05:58:55;;;;;;;2.03;0.88;;;;;;;;;;7332166;19;154073;-14
2022/04/23 06:01:27;;;;;;;1.67;0.77;;;;;;;;;;7334495;19;153863;-16
2022/04/23 06:03:58;;;;;;;1.02;0.90;;;;;;;;;;7336496;19;162033;-15
2022/04/23 06:06:29;;;;;;;1.67;1.33;;;;;;;;;;7335165;19;162357;-16
2022/04/23 06:09:03;;;;;;;1.10;1.00;;;;;;;;;;7333812;19;154189;-14
2022/04/23 06:11:34;;;;;;;1.73;1.00;;;;;;;;;;7335551;19;153681;-15
2022/04/23 06:14:05;;;;;;;2.03;1.00;;;;;;;;;;7335154;19;161851;-15
2022/04/23 06:16:37;;;;;;;2.40;0.80;;;;;;;;;;7333772;19;162686;-15
2022/04/23 06:19:08;;;;;;;2.50;0.98;;;;;;;;;;7335153;19;154172;-15
2022/04/23 06:21:39;;;;;;;2.38;0.90;;;;;;;;;;7335330;19;153487;-16
2022/04/23 06:24:13;;;;;;;2.13;0.95;;;;;;;;;;7334897;19;161985;-16
2022/04/23 06:26:48;;;;;;;1.73;0.80;;;;;;;;;;7333212;19;162698;-15
2022/04/23 06:29:19;;;;;;;1.13;1.02;;;;;;;;;;7332954;19;154194;-15
2022/04/23 06:31:50;;;;;;;1.15;0.80;;;;;;;;;;7334790;19;153715;-14
2022/04/23 06:34:22;;;;;;;1.90;1.00;;;;;;;;;;7334462;19;161801;-17
2022/04/23 06:36:53;;;;;;;1.60;0.88;;;;;;;;;;7333052;19;162419;-16
2022/04/23 06:39:27;;;;;;;0.73;0.73;;;;;;;;;;7334873;19;154118;-14
2022/04/23 06:41:58;;;;;;;1.38;0.85;;;;;;;;;;7334352;19;153717;-14
2022/04/23 06:44:31;;;;;;;3.95;0.75;;;;;;;;;;7332874;19;161604;-16
2022/04/23 06:47:02;;;;;;;2.38;0.80;;;;;;;;;;7334122;19;162371;-14
2022/04/23 06:49:34;;;;;;;2.63;0.70;;;;;;;;;;7332521;19;154135;-17
2022/04/23 06:52:06;;;;;;;1.02;0.88;;;;;;;;;;7334136;19;153613;-16
2022/04/23 06:54:40;;;;;;;0.68;0.68;;;;;;;;;;7333667;19;161742;-15
2022/04/23 06:57:11;;;;;;;0.80;0.80;;;;;;;;;;7333726;19;162576;-17
2022/04/23 06:59:42;;;;;;;2.20;0.70;;;;;;;;;;7334122;19;154014;-16
2022/04/23 07:02:13;;;;;;;3.33;0.90;;;;;;;;;;7333690;19;153586;-17
2022/04/23 07:04:44;;;;;;;3.30;0.68;;;;;;;;;;7333223;19;161870;-15
2022/04/23 07:07:16;;;;;;;0.70;0.70;;;;;;;;;;7333334;19;162442;-16
2022/04/23 07:09:50;;;;;;;1.98;0.95;;;;;;;;;;7329014;19;154157;-15
2022/04/23 07:12:21;;;;;;;0.80;0.70;;;;;;;;;;7333950;19;153609;-15
2022/04/23 07:14:53;;;;;;;3.40;0.82;;;;;;;;;;7333088;19;161751;-15
2022/04/23 07:17:27;;;;;;;2.08;0.70;;;;;;;;;;7332825;19;162401;-15
2022/04/23 07:19:58;;;;;;;3.17;0.75;;;;;;;;;;7333461;19;154180;-15
2022/04/23 07:22:29;;;;;;;1.98;0.70;;;;;;;;;;7333241;19;153539;-16
2022/04/23 07:25:03;;;;;;;2.00;0.90;;;;;;;;;;7332826;19;161768;-17
2022/04/23 07:27:34;;;;;;;1.33;0.73;;;;;;;;;;7332562;19;162577;-17
2022/04/23 07:30:07;;;;;;;2.22;1.05;;;;;;;;;;7330860;19;154080;-17
2022/04/23 07:32:38;;;;;;;1.07;0.70;;;;;;;;;;7332667;19;153510;-16
2022/04/23 07:37:54;;;;;;;0.88;0.60;;;;;;;;;;7332361;19;162546;-15
2022/04/23 07:40:28;;;;;;;5.65;0.75;;;;;;;;;;7332553;19;154076;-15
2022/04/23 07:42:59;;;;;;;1.52;0.88;;;;;;;;;;7332450;19;153547;-17
2022/04/23 07:45:31;;;;;;;1.13;1.08;;;;;;;;;;7332175;19;161931;-16
2022/04/23 07:48:02;;;;;;;1.35;0.68;;;;;;;;;;7330930;19;164083;-15
2022/04/23 07:50:34;;;;;;;0.90;0.60;;;;;;;;;;7330095;19;154152;-14
2022/04/23 07:53:07;;;;;;;2.42;1.00;;;;;;;;;;7332217;19;153585;-16
2022/04/23 07:55:44;;;;;;;0.77;0.70;;;;;;;;;;7331782;19;161851;-17
2022/04/23 07:58:15;;;;;;;0.95;0.65;;;;;;;;;;7330567;19;162686;-15
2022/04/23 08:00:46;;;;;;;3.38;0.80;;;;;;;;;;7331977;19;154032;-15
2022/04/23 08:03:17;;;;;;;2.80;0.77;;;;;;;;;;7332089;19;153582;-16
2022/04/23 08:05:49;;;;;;;2.00;0.65;;;;;;;;;;7331345;19;162042;-15
2022/04/23 08:08:21;;;;;;;1.38;0.70;;;;;;;;;;7334465;19;162525;-14
2022/04/23 08:10:55;;;;;;;1.50;0.60;;;;;;;;;;7329526;19;154179;-16
2022/04/23 08:13:27;;;;;;;2.75;0.63;;;;;;;;;;7331852;19;153650;-16
2022/04/23 08:15:59;;;;;;;0.88;0.60;;;;;;;;;;7331476;19;161982;-16
2022/04/23 08:18:30;;;;;;;3.13;0.60;;;;;;;;;;7331180;19;162403;-15
2022/04/23 08:21:01;;;;;;;1.23;0.60;;;;;;;;;;7330537;19;153994;-14
2022/04/23 08:23:34;;;;;;;1.85;0.55;;;;;;;;;;7331400;19;153734;-16
2022/04/23 08:26:08;;;;;;;0.77;0.60;;;;;;;;;;7331164;19;161973;-15
2022/04/23 08:31:23;;;;;;;0.85;0.50;;;;;;;;;;7331383;19;154760;-15
2022/04/23 08:34:01;;;;;;;1.85;0.60;;;;;;;;;;7333135;19;153677;-16
2022/04/23 08:36:35;;;;;;;0.77;0.70;;;;;;;;;;7330882;19;161723;-14
2022/04/23 08:39:07;;;;;;;0.60;0.60;;;;;;;;;;7330592;19;162336;-16
2022/04/23 08:41:42;;;;;;;2.97;0.93;;;;;;;;;;7331016;19;154437;-16
2022/04/23 08:44:13;;;;;;;1.20;0.55;;;;;;;;;;7330846;19;153502;-19
2022/04/23 08:46:46;;;;;;;0.63;0.52;;;;;;;;;;7330675;19;161924;-16
2022/04/23 08:49:19;;;;;;;0.77;0.52;;;;;;;;;;7327690;19;162307;-16
2022/04/23 08:51:54;;;;;;;0.60;0.60;;;;;;;;;;7330851;19;153990;-15
2022/04/23 08:54:26;;;;;;;0.60;0.60;;;;;;;;;;7329591;19;153758;-17
2022/04/23 08:57:00;;;;;;;0.60;0.60;;;;;;;;;;7328664;19;161884;-16
2022/04/23 08:59:31;;;;;;;1.88;0.80;;;;;;;;;;7329934;19;162510;-15
2022/04/23 09:02:03;;;;;;;3.40;0.80;;;;;;;;;;7329381;19;154206;-16
2022/04/23 09:04:34;;;;;;;0.98;0.80;;;;;;;;;;7330166;19;153524;-14
2022/04/23 09:07:06;;;;;;;0.85;0.70;;;;;;;;;;7329744;19;161839;-15
2022/04/23 09:09:51;;;;;;;1.42;0.73;;;;;;;;;;7330814;19;162861;-15
2022/04/23 09:12:30;;;;;;;2.10;0.70;;;;;;;;;;7328642;19;132697;-16
2022/04/23 09:23:46;;;;;;;0.83;0.70;;;;;;;;;;7329725;19;154049;-15
2022/04/23 09:26:18;;;;;;;1.02;0.85;;;;;;;;;;7329493;19;153524;-15
2022/04/23 09:28:55;;;;;;;2.88;1.05;;;;;;;;;;7329398;19;163072;-17
2022/04/23 09:31:27;;;;;;;1.40;0.63;;;;;;;;;;7325842;19;162560;-15
2022/04/23 09:33:58;;;;;;;0.95;0.90;;;;;;;;;;7326991;19;154024;-17
2022/04/23 09:36:49;;;;;;;2.38;1.10;;;;;;;;;;7329433;19;153510;-15
2022/04/23 09:39:31;;;;;;;1.95;0.90;;;;;;;;;;7327921;19;161836;-16
2022/04/23 09:42:17;;;;;;;2.27;0.80;;;;;;;;;;7328919;19;162335;-15
2022/04/23 09:44:50;;;;;;;1.23;0.60;;;;;;;;;;7328880;19;153995;-14
2022/04/23 09:47:34;;;;;;;2.92;0.80;;;;;;;;;;7327861;19;153953;-16
2022/04/23 09:50:07;;;;;;;0.68;0.68;;;;;;;;;;7327043;19;162007;-16
2022/04/23 09:52:39;;;;;;;3.50;1.00;;;;;;;;;;7328145;19;162539;-15
2022/04/23 09:55:27;;;;;;;6.13;1.05;;;;;;;;;;7328840;19;154115;-16
2022/04/23 09:57:58;;;;;;;;;;;;;;;;;;7327963;19;153534;-15
2022/04/23 10:00:33;;;;;;;1.02;0.60;;;;;;;;;;7325450;19;162063;-15
2022/04/23 10:03:06;;;;;;;9.95;1.73;;;;;;;;;;7328905;19;162568;-14
2022/04/23 10:05:43;;;;;;;1.73;0.98;;;;;;;;;;7332539;19;154038;-16
2022/04/23 10:08:16;;;;;;;4.10;0.80;;;;;;;;;;7326713;19;153520;-16
2022/04/23 10:10:51;;;;;;;3.97;0.95;;;;;;;;;;7327884;19;162514;-15
2022/04/23 10:13:25;;;;;;;3.97;1.38;;;;;;;;;;7327323;19;162371;-15
2022/04/23 10:16:02;;;;;;;1.88;0.85;;;;;;;;;;7325593;19;154005;-15
2022/04/23 10:18:34;;;;;;;2.58;1.10;;;;;;;;;;7327290;19;153593;-15
2022/04/23 10:21:08;;;;;;;3.97;1.27;;;;;;;;;;7327545;19;161802;-17
2022/04/23 10:23:52;;;;;;;3.35;1.15;;;;;;;;;;7327034;19;162376;-17
2022/04/23 10:26:34;;;;;;;1.17;0.90;;;;;;;;;;7327904;19;154197;-16
2022/04/23 10:29:11;;;;;;;1.33;0.98;;;;;;;;;;7327627;19;153496;-16
2022/04/23 10:31:45;;;;;;;0.85;0.75;;;;;;;;;;7325496;19;161721;-17
2022/04/23 10:34:34;;;;;;;4.20;1.00;;;;;;;;;;7327132;19;162497;-15
2022/04/23 10:37:21;;;;;;;1.45;0.80;;;;;;;;;;7327348;19;154014;-17
2022/04/23 10:40:19;;;;;;;2.42;0.70;;;;;;;;;;7325890;19;154077;-17
2022/04/23 10:43:15;;;;;;;0.95;0.60;;;;;;;;;;7326348;19;162053;-16
2022/04/23 10:45:48;;;;;;;2.42;0.90;;;;;;;;;;7333116;19;162370;-15
2022/04/23 10:48:30;;;;;;;0.80;0.80;;;;;;;;;;7332586;19;154000;-17
2022/04/23 10:51:05;;;;;;;1.67;0.70;;;;;;;;;;7333237;19;153852;-15
2022/04/23 10:53:53;;;;;;;2.63;0.80;;;;;;;;;;7333539;19;161781;-14
2022/04/23 10:56:26;;;;;;;0.75;0.75;;;;;;;;;;7333333;19;162366;-13
2022/04/23 10:58:57;;;;;;;;;;;;;;;;;;7334268;19;154194;-14
2022/04/23 11:01:30;;;;;;;1.00;0.82;;;;;;;;;;7333858;19;153352;-14
2022/04/23 11:04:15;;;;;;;0.95;0.60;;;;;;;;;;7334540;19;161906;-13
2022/04/23 11:12:32;;;;;;;0.90;0.90;;;;;;;;;;7331339;19;153484;-15
2022/04/23 11:15:14;;;;;;;1.38;0.80;;;;;;;;;;7332788;19;161741;-15
2022/04/23 11:17:56;;;;;;;1.38;1.08;;;;;;;;;;7332676;19;162343;-14
2022/04/23 11:20:38;;;;;;;0.80;0.80;;;;;;;;;;7333147;19;154042;-15
2022/04/23 11:23:10;;;;;;;1.20;0.63;;;;;;;;;;7332864;19;153774;-15
2022/04/23 11:25:41;;;;;;;3.03;1.45;;;;;;;;;;7332673;19;161900;-15
2022/04/23 11:28:16;;;;;;;1.33;0.60;;;;;;;;;;7332200;19;162560;-16
2022/04/23 11:30:48;;;;;;;0.80;0.70;;;;;;;;;;7331712;19;154197;-14
2022/04/23 11:33:19;;;;;;;0.65;0.65;;;;;;;;;;7332722;19;153557;-15
2022/04/23 11:36:00;;;;;;;2.85;0.88;;;;;;;;;;7332293;19;161838;-14
2022/04/23 11:38:32;;;;;;;0.95;0.73;;;;;;;;;;7332037;19;162319;-16
2022/04/23 11:41:04;;;;;;;1.50;0.60;;;;;;;;;;7332578;19;154059;-15
2022/04/23 11:43:37;;;;;;;0.77;0.77;;;;;;;;;;7332393;19;153675;-16
2022/04/23 11:46:11;;;;;;;1.15;0.70;;;;;;;;;;7331650;19;161787;-14
2022/04/23 11:48:43;;;;;;;1.77;0.88;;;;;;;;;;7330125;19;162135;-14
2022/04/23 11:51:18;;;;;;;1.83;0.80;;;;;;;;;;7331971;19;153972;-16
2022/04/23 11:54:00;;;;;;;1.08;0.88;;;;;;;;;;7332278;19;153563;-14
2022/04/23 11:56:33;;;;;;;1.45;0.75;;;;;;;;;;7329493;19;161750;-15
2022/04/23 11:59:09;;;;;;;0.80;0.80;;;;;;;;;;7330393;19;162241;-15
2022/04/23 12:01:41;;;;;;;0.82;0.80;;;;;;;;;;7332025;19;154069;-14
2022/04/23 12:04:13;;;;;;;0.77;0.77;;;;;;;;;;7335272;19;153690;-15
2022/04/23 12:06:49;;;;;;;1.30;1.20;;;;;;;;;;7331865;19;161796;-15
2022/04/23 12:09:20;;;;;;;1.15;0.85;;;;;;;;;;7331674;19;162411;-14
2022/04/23 12:12:02;;;;;;;3.22;1.00;;;;;;;;;;7330391;19;154112;-14
2022/04/23 12:14:33;;;;;;;4.95;1.10;;;;;;;;;;7331994;19;153544;-16
2022/04/23 12:17:10;;;;;;;3.30;1.10;;;;;;;;;;7331685;19;162002;-14
2022/04/23 12:19:41;;;;;;;3.10;1.42;;;;;;;;;;7331416;19;162537;-15
2022/04/23 12:22:25;;;;;;;2.05;1.20;;;;;;;;;;7331710;19;154230;-14
2022/04/23 12:25:10;;;;;;;1.13;0.98;;;;;;;;;;7331199;19;153678;-16
2022/04/23 12:28:01;;;;;;;1.20;1.10;;;;;;;;;;7331111;19;161949;-15
2022/04/23 12:41:40;;;;;;;2.17;1.27;;;;;;;;;;7331045;19;162602;-13
2022/04/23 12:44:22;;;;;;;3.22;1.20;;;;;;;;;;7331220;19;154364;-15
2022/04/23 12:46:57;;;;;;;1.30;1.10;;;;;;;;;;7331070;19;153512;-13
2022/04/23 12:49:47;;;;;;;1.17;1.08;;;;;;;;;;7327895;19;162222;-16
2022/04/23 12:52:21;;;;;;;1.33;0.70;;;;;;;;;;7329876;19;162634;-16
2022/04/23 12:55:17;;;;;;;2.72;1.20;;;;;;;;;;7330722;19;154237;-15
2022/04/23 12:57:50;;;;;;;1.02;0.93;;;;;;;;;;7330948;19;153862;-15
2022/04/23 13:00:23;;;;;;;1.92;0.95;;;;;;;;;;7330413;19;161939;-15
2022/04/23 13:02:57;;;;;;;0.85;0.80;;;;;;;;;;7330364;19;162701;-13
2022/04/23 13:05:29;;;;;;;1.20;1.00;;;;;;;;;;7330546;19;154011;-14
2022/04/23 13:10:47;;;;;;;1.70;0.90;;;;;;;;;;7330129;19;161845;-15
2022/04/23 13:13:18;;;;;;;0.90;0.73;;;;;;;;;;7330569;19;162570;-15
2022/04/23 13:15:49;;;;;;;1.17;0.85;;;;;;;;;;7330329;19;154041;-15
2022/04/23 13:18:21;;;;;;;1.15;0.80;;;;;;;;;;7330246;19;153458;-14
2022/04/23 13:20:52;;;;;;;0.73;0.73;;;;;;;;;;7329508;19;161780;-13
2022/04/23 13:23:23;;;;;;;1.15;1.05;;;;;;;;;;7329594;19;162473;-14
2022/04/23 13:25:57;;;;;;;1.23;1.13;;;;;;;;;;7329825;19;154193;-15
2022/04/23 13:28:29;;;;;;;1.30;1.20;;;;;;;;;;7329759;19;154179;-15
2022/04/23 13:31:03;;;;;;;3.55;1.10;;;;;;;;;;7328103;19;162068;-16
2022/04/23 13:33:34;;;;;;;2.95;0.90;;;;;;;;;;7327604;19;162530;-17
2022/04/23 13:36:06;;;;;;;2.60;1.08;;;;;;;;;;7329596;19;153817;-14
2022/04/23 13:38:38;;;;;;;2.33;0.95;;;;;;;;;;7329261;19;153583;-14
2022/04/23 13:41:16;;;;;;;1.30;0.80;;;;;;;;;;7329186;19;161914;-16
2022/04/23 13:43:48;;;;;;;0.82;0.82;;;;;;;;;;7328790;19;162407;-16
2022/04/23 13:46:20;;;;;;;1.80;0.80;;;;;;;;;;7329119;19;154046;-16
2022/04/23 13:48:51;;;;;;;1.73;1.17;;;;;;;;;;7326938;19;153695;-16
2022/04/23 13:51:23;;;;;;;1.85;1.00;;;;;;;;;;7328546;19;162199;-13
2022/04/23 13:53:54;;;;;;;1.52;0.77;;;;;;;;;;7326988;19;162534;-13
2022/04/23 13:56:28;;;;;;;0.82;0.82;;;;;;;;;;7329041;19;154586;-15
2022/04/23 13:58:59;;;;;;;0.90;0.80;;;;;;;;;;7329138;19;153557;-16
2022/04/23 14:01:32;;;;;;;;;;;;;;;;;;7328692;19;161877;-15
2022/04/23 14:12:15;;;;;;;0.82;0.80;;;;;;;;;;7326933;19;162333;-15
2022/04/23 14:14:47;;;;;;;1.60;0.90;;;;;;;;;;7324430;19;162763;-13
2022/04/23 14:17:18;;;;;;;0.85;0.85;;;;;;;;;;7328242;19;154067;-15
2022/04/23 14:19:49;;;;;;;1.30;1.23;;;;;;;;;;7332080;19;153685;-14
2022/04/23 14:22:20;;;;;;;0.85;0.85;;;;;;;;;;7334737;19;161824;-18
2022/04/23 14:24:52;;;;;;;0.70;0.70;;;;;;;;;;7334611;19;162671;-15
2022/04/23 14:27:26;;;;;;;1.50;0.90;;;;;;;;;;7335154;19;154062;-15
2022/04/23 14:29:57;;;;;;;1.92;1.17;;;;;;;;;;7334941;19;153548;-16
2022/04/23 14:32:28;;;;;;;0.73;0.70;;;;;;;;;;7334613;19;162067;-16
2022/04/23 14:35:00;;;;;;;1.02;0.93;;;;;;;;;;7332372;19;162664;-14
2022/04/23 14:37:35;;;;;;;1.17;0.85;;;;;;;;;;7333616;19;154258;-14
2022/04/23 14:40:08;;;;;;;1.63;0.85;;;;;;;;;;7334605;19;153756;-15
2022/04/23 14:42:42;;;;;;;1.95;1.02;;;;;;;;;;7334242;19;162014;-15
2022/04/23 14:45:17;;;;;;;0.73;0.73;;;;;;;;;;7334107;19;162335;-15
2022/04/23 14:47:51;;;;;;;0.82;0.82;;;;;;;;;;7333627;19;154188;-15
2022/04/23 14:50:22;;;;;;;2.58;0.88;;;;;;;;;;7334077;19;153689;-16
2022/04/23 14:55:37;;;;;;;0.70;0.70;;;;;;;;;;7333276;19;162625;-16
2022/04/23 14:58:11;;;;;;;0.82;0.82;;;;;;;;;;7334230;19;154078;-14
2022/04/23 15:00:42;;;;;;;2.15;0.73;;;;;;;;;;7334194;19;153299;-14
2022/04/23 15:03:13;;;;;;;1.30;0.98;;;;;;;;;;7332421;19;161822;-15
2022/04/23 15:05:45;;;;;;;0.85;0.82;;;;;;;;;;7335333;19;162519;-14
2022/04/23 15:08:16;;;;;;;1.25;1.00;;;;;;;;;;7335377;19;154481;-13
2022/04/23 15:10:48;;;;;;;1.00;0.90;;;;;;;;;;7337285;19;153553;-18
2022/04/23 15:13:22;;;;;;;0.88;0.80;;;;;;;;;;7334101;19;162024;-13
2022/04/23 15:15:53;;;;;;;1.60;0.80;;;;;;;;;;7335024;19;162352;-14
2022/04/23 15:18:24;;;;;;;2.42;0.80;;;;;;;;;;7336377;19;154099;-14
2022/04/23 15:20:55;;;;;;;0.80;0.80;;;;;;;;;;7337207;19;153807;-15
2022/04/23 15:23:30;;;;;;;1.50;0.88;;;;;;;;;;7333980;19;162698;-14
2022/04/23 15:26:02;;;;;;;1.23;0.80;;;;;;;;;;7333407;19;162578;-15
2022/04/23 15:28:36;;;;;;;1.42;0.75;;;;;;;;;;7336142;19;154392;-15
2022/04/23 15:31:07;;;;;;;0.75;0.73;;;;;;;;;;7334513;19;153501;-14
2022/04/23 15:33:39;;;;;;;2.17;0.80;;;;;;;;;;7333686;19;161808;-14
2022/04/23 15:36:11;;;;;;;1.40;0.68;;;;;;;;;;7334997;19;162506;-13
2022/04/23 15:38:42;;;;;;;1.27;0.80;;;;;;;;;;7336305;19;154007;-15
2022/04/23 15:41:13;;;;;;;0.68;0.68;;;;;;;;;;7333376;19;153641;-13
2022/04/23 15:43:47;;;;;;;0.90;0.60;;;;;;;;;;7333803;19;161749;-16
2022/04/23 15:46:19;;;;;;;17.38;1.25;;;;;;;;;;7334894;19;162430;-14
2022/04/23 15:48:50;;;;;;;2.42;1.30;;;;;;;;;;7334153;19;154141;-16
2022/04/23 15:51:21;;;;;;;2.88;0.85;;;;;;;;;;7333367;19;153809;-16